Weather observations for the past three days for
Pine Bluffs Municipal Airport
Imperial (Metric)
Date Time (mdt) Wind (mph) Vis. (mi.) Weather Sky Cond. Temperature (ºF) Relative Humidity Wind Chill (°F) Heat Index (°F) Pressure Precipitation (in)
Air Dwpt 6 hour altimeter (in) sea level (mb) 1 hr 3 hr 6 hr
Max. Min.
01 15:15 SW 13 G 20 10.00 Mostly Cloudy SCT090 BKN100 83.7 49.8 31% 82 30.07 0.0
01 14:55 S 14 G 20 10.00 Mostly Cloudy SCT085 BKN120 84.4 50.2 31% 82 30.07 0.0
01 14:35 SW 15 G 21 10.00 A Few Clouds FEW090 85.5 50.7 30% 83 30.08 0.0
01 14:15 SW 10 G 18 10.00 Fair CLR 85.3 50.4 30% 83 30.08 0.0
01 13:55 SW 14 10.00 Fair CLR 84.7 51.3 32% 83 30.08 0.0
01 13:35 S 13 10.00 Fair CLR 83.5 51.4 33% 82 30.08 0.0
01 13:15 SW 9 10.00 Fair CLR 82.8 50.2 32% 81 30.09 0.0
01 12:55 S 10 G 20 10.00 Fair CLR 80.6 52.9 38% 80 30.1 0.0
01 12:35 S 12 10.00 Fair CLR 81.1 53.8 39% 81 30.11 0.0
01 12:15 SW 8 G 16 10.00 Fair CLR 81.3 48.4 32% 80 30.11 0.0
01 11:55 Vrbl 6 10.00 Fair CLR 78.4 47.5 78.6 59 34% 79 30.12 0.0
01 11:35 W 7 10.00 Fair CLR 76.1 48.4 38% 78 30.13 0.0
01 11:15 W 9 10.00 Fair CLR 75.7 48 38% 78 30.13 0.0
01 10:55 W 9 9.00 Fair CLR 75 49.5 41% 78 30.14 0.0
01 10:35 W 12 10.00 Fair CLR 74.7 48.6 40% 30.13 0.0
01 10:15 W 17 10.00 Fair CLR 74.8 48.2 39% 30.13 0.0
01 09:55 W 13 10.00 Fair CLR 74.7 52.9 47% 30.13 0.0
01 09:35 W 10 10.00 Fair CLR 72 53.4 52% 30.13 0.0
01 09:15 W 9 9.00 Fair CLR 70 53.8 57% 30.13 0.0
01 08:55 SW 8 9.00 Fair CLR 69.3 54.5 60% 30.13 0.0
01 08:35 W 8 9.00 Fair CLR 68.2 54.7 62% 30.14 0.0
01 08:15 SW 7 9.00 Fair CLR 65.5 56.5 73% 30.14 0.0
01 07:55 S 5 9.00 Fair CLR 61.2 57.6 88% 30.13 0.0
01 07:35 S 5 9.00 Fair CLR 60.3 57.4 90% 30.13 0.0
01 07:15 S 5 9.00 Fair CLR 61.2 55.2 81% 30.13 0.0
01 06:55 W 3 9.00 Fair CLR 59.4 56.5 90% 30.13 0.0
01 06:35 Calm 9.00 Fair CLR 59.2 56.1 90% 30.12 0.0
01 06:15 SW 3 10.00 Fair CLR 60.3 55.8 85% 30.11 0.0
01 05:55 SW 5 10.00 Fair CLR 59.9 56.3 64.8 59.9 88% 30.1 0.0
01 05:35 S 6 10.00 Fair CLR 61.2 55.6 82% 30.1 0.0
01 05:15 SW 8 10.00 A Few Clouds FEW120 61.2 55.8 83% 30.1 0.0
01 04:55 S 8 10.00 Mostly Cloudy BKN120 60.8 57.2 88% 30.11 0.0
01 04:35 SW 10 10.00 Partly Cloudy SCT120 62.6 55.8 78% 30.11 0.0
01 04:15 SW 6 10.00 Mostly Cloudy BKN120 61.9 57 84% 30.1 0.0
01 03:55 S 8 10.00 Overcast BKN100 OVC120 63.5 55.6 76% 30.11 0.0
01 03:35 SW 10 10.00 Overcast BKN095 OVC110 64 55 73% 30.12 0.0
01 03:15 W 10 10.00 Overcast OVC095 64 55.2 73% 30.12 0.0
01 02:55 W 9 10.00 Mostly Cloudy BKN100 BKN120 64.8 54.3 69% 30.12 0.0
01 02:35 SW 13 10.00 Mostly Cloudy FEW090 BKN120 64.6 54.1 69% 30.13 0.0
01 02:15 W 14 10.00 Overcast BKN095 OVC110 64.2 54.3 70% 30.13 0.0
01 01:55 W 7 10.00 Overcast OVC100 63.3 55 75% 30.13 0.0
01 01:35 W 8 10.00 Overcast OVC110 63.1 55 75% 30.14 0.0
01 01:15 SW 6 10.00 Overcast OVC110 62.4 55.8 79% 30.13 0.0
01 00:55 SW 5 10.00 Partly Cloudy SCT110 62.6 56.1 79% 30.13 0.0
01 00:35 SW 8 10.00 Partly Cloudy FEW090 SCT110 62.1 57 84% 30.13 0.0
01 00:15 SW 9 9.00 Light Rain FEW055 BKN090 BKN110 62.1 57.4 85% 30.14 0.0
31 23:55 S 16 G 26 10.00 Light Rain FEW075 BKN100 BKN120 63.7 56.3 82.4 63.7 77% 30.17 0.0
31 23:35 S 22 G 29 10.00 Partly Cloudy and Breezy SCT120 64.9 55.8 72% 30.18 0.0
31 23:15 S 21 G 28 10.00 Mostly Cloudy and Breezy BKN110 68.5 52.9 58% 30.18 0.0
31 22:55 S 15 10.00 Overcast OVC110 71.4 48.4 44% 30.19 0.0
31 22:35 SE 6 10.00 Overcast OVC110 68.4 51.6 55% 30.17 0.0
31 22:15 W 5 9.00 Overcast OVC110 71.2 48.4 44% 30.15 0.0
31 21:55 SW 8 10.00 Overcast OVC110 74.8 46.4 36% 30.15 0.0
31 21:35 W 14 G 18 10.00 Overcast OVC110 71.2 50.4 48% 30.15 0.0
31 21:15 SW 10 10.00 Overcast OVC100 72.5 49.3 44% 30.14 0.0
31 20:55 SW 9 10.00 Overcast OVC120 72.5 49.8 45% 30.13 0.0
31 20:35 SW 8 10.00 Partly Cloudy SCT120 72.9 49.6 44% 30.12 0.0
31 20:15 SW 7 10.00 Fair CLR 73.2 48.7 42% 30.11 0.0
31 19:55 SW 9 10.00 Fair CLR 73.9 48.7 41% 30.11 0.0
31 19:35 SW 9 10.00 Fair CLR 73.4 49.3 43% 30.11 0.0
31 19:15 S 7 10.00 Fair CLR 74.1 49.3 42% 30.11 0.0
31 18:55 S 9 10.00 Fair CLR 76.5 48.9 38% 78 30.11 0.0
31 18:35 S 12 10.00 Fair CLR 78.8 48 34% 79 30.11 0.0
31 18:15 S 12 10.00 Fair CLR 80.8 44.6 28% 80 30.11 0.0
31 17:55 S 7 10.00 Fair CLR 84 43.5 86.2 79.3 24% 82 30.11 0.0
31 17:35 SW 8 10.00 Fair CLR 84.4 44.2 24% 82 30.11 0.0
31 16:55 S 10 10.00 Fair CLR 85.1 44.6 24% 82 30.11 0.0
31 16:35 S 10 10.00 Fair CLR 84.9 45.5 25% 82 30.11 0.0
31 16:15 S 8 10.00 Fair CLR 83.5 44.6 26% 81 30.11 0.0
31 15:55 SW 12 10.00 Fair CLR 85.5 44.4 24% 83 30.11 0.0
31 15:35 SW 9 G 17 10.00 Fair CLR 86.2 45.1 24% 83 30.12 0.0
31 15:15 SW 13 10.00 Fair CLR 84 44.4 25% 82 30.13 0.0
31 14:55 SW 9 G 20 10.00 Fair CLR 84.7 45.3 25% 82 30.14 0.0
31 14:35 S 10 10.00 Fair CLR 83.3 45.1 26% 81 30.15 0.0
31 14:15 S 12 G 21 10.00 Fair CLR 84 45 25% 82 30.15 0.0
31 13:55 SW 14 G 21 10.00 Fair CLR 83.7 43.9 25% 81 30.16 0.0
31 13:35 SW 15 10.00 Fair CLR 83.7 45 26% 81 30.16 0.0
31 13:15 SW 16 10.00 Fair CLR 83.7 44.8 26% 81 30.17 0.0
31 12:55 SW 16 10.00 Fair CLR 82.2 46 28% 80 30.18 0.0
31 12:35 W 9 10.00 Fair CLR 82.6 46.6 28% 81 30.18 0.0
31 12:15 W 9 10.00 Fair CLR 80.2 47.3 32% 79 30.18 0.0
31 11:55 W 8 10.00 Fair CLR 79.7 46 81 55 31% 79 30.19 0.0
31 11:35 NW 12 10.00 Fair CLR 79.2 47.1 32% 79 30.19 0.0
31 11:15 NW 10 10.00 Fair CLR 79 46.8 32% 79 30.19 0.0
31 10:55 NW 16 10.00 Fair CLR 77 46.2 34% 78 30.19 0.0
31 10:35 NW 9 10.00 Fair CLR 76.8 46.9 35% 78 30.2 0.0
31 10:15 W 8 10.00 Fair CLR 75.4 46.8 36% 77 30.19 0.0
31 09:55 NW 14 10.00 Fair CLR 75.7 45.5 34% 77 30.19 0.0
31 09:35 W 13 10.00 Fair CLR 75.4 45.9 35% 77 30.19 0.0
31 09:15 NW 5 10.00 Fair CLR 72.3 48.4 43% 30.19 0.0
31 08:55 NW 7 10.00 Fair CLR 70 47.8 45% 30.19 0.0
31 08:35 W 5 10.00 Fair CLR 68.4 50 52% 30.18 0.0
31 08:15 W 9 9.00 Fair CLR 68.7 48.2 48% 30.17 0.0
31 07:55 NW 7 9.00 Fair CLR 66.2 48.7 54% 30.17 0.0
31 07:35 W 9 10.00 Fair CLR 63.9 48 57% 30.17 0.0
31 07:15 W 12 9.00 Fair CLR 63.5 47.8 57% 30.15 0.0
31 06:55 W 5 10.00 Fair CLR 58.1 47.3 67% 30.15 0.0
31 06:35 Calm 10.00 Fair CLR 57.9 46.9 67% 30.15 0.0
31 06:15 Calm 10.00 Fair CLR 55.4 49.3 80% 30.14 0.0
31 05:55 Calm 10.00 Fair CLR 55.8 49.6 59.5 54.1 80% 30.14 0.0
31 05:35 SW 7 10.00 Fair CLR 56.7 49.8 78% 30.14 0.0
31 05:15 S 9 10.00 Fair CLR 55.2 50.2 83% 30.14 0.0
31 04:55 S 7 10.00 A Few Clouds FEW120 54.3 50.9 88% 30.12 0.0
31 04:35 Calm 10.00 Mostly Cloudy BKN110 55.2 51.3 87% 30.12 0.0
31 04:15 S 7 10.00 Overcast OVC110 55.9 51.3 84% 30.12 0.0
31 03:55 Calm 10.00 Mostly Cloudy BKN120 56.5 51.1 82% 30.12 0.0
31 03:35 Vrbl 3 10.00 Mostly Cloudy BKN120 56.3 51.3 83% 30.12 0.0
31 03:15 W 6 10.00 Partly Cloudy SCT120 55.4 51.6 87% 30.11 0.0
31 02:55 W 5 10.00 Fair CLR 55.6 51.8 87% 30.1 0.0
31 02:35 W 7 10.00 Fair CLR 55.8 51.8 87% 30.11 0.0
31 02:15 S 5 10.00 Fair CLR 57.6 51.1 79% 30.1 0.0
31 01:55 SW 5 10.00 Fair CLR 55.9 52.2 87% 30.11 0.0
31 01:35 SW 3 10.00 Fair CLR 56.7 52.7 87% 30.11 0.0
31 01:15 W 3 10.00 Partly Cloudy SCT120 57.2 53.1 86% 30.12 0.0
31 00:55 Calm 10.00 Partly Cloudy SCT120 57.2 53.1 86% 30.13 0.0
31 00:35 Calm 10.00 Partly Cloudy SCT120 57.9 52.7 83% 30.13 0.0
31 00:15 SW 6 10.00 Fair CLR 59 53.1 81% 30.13 0.0
30 23:55 Calm 10.00 Fair CLR 59.5 53.4 73.6 58.3 80% 30.13 0.0
30 23:35 W 7 10.00 Fair CLR 59 52.5 79% 30.13 0.0
30 23:15 S 3 10.00 Fair CLR 60.8 51.8 72% 30.13 0.0
30 22:55 W 3 10.00 Fair CLR 60.4 52.2 74% 30.14 0.0
30 22:35 Calm 10.00 Fair CLR 62.4 50.9 66% 30.13 0.0
30 22:15 SE 3 10.00 Fair CLR 62.1 51.1 67% 30.13 0.0
30 21:55 W 8 10.00 Fair CLR 62.1 51.1 67% 30.13 0.0
30 21:35 SW 7 10.00 Fair CLR 63 50.2 63% 30.12 0.0
30 21:15 SW 9 10.00 Fair CLR 63.3 50 62% 30.12 0.0
30 20:55 Calm 10.00 Fair CLR 63.7 50 61% 30.12 0.0
30 20:35 SW 6 10.00 Fair CLR 64.8 49.6 58% 30.11 0.0
30 20:15 SW 9 10.00 Fair CLR 65.8 49.6 56% 30.1 0.0
30 19:55 S 12 10.00 Fair CLR 66.4 49.1 54% 30.1 0.0
30 19:35 SW 7 10.00 Fair CLR 68.5 48.6 49% 30.1 0.0
30 19:15 SW 9 10.00 Fair CLR 67.1 49.8 54% 30.1 0.0
30 18:55 SW 7 10.00 Fair CLR 69.6 50.2 50% 30.1 0.0
30 18:35 SW 12 10.00 Fair CLR 71.4 49.6 46% 30.11 0.0
30 18:15 W 9 10.00 Fair CLR 72 49.6 45% 30.11 0.0
30 17:55 W 15 10.00 Fair CLR 75.2 49.1 84.7 72.5 40% 78 30.09 0.0
30 17:35 W 14 10.00 Fair CLR 74.8 49.1 40% 30.09 0.0
30 17:15 W 16 10.00 Fair CLR 77.4 49.3 37% 78 30.09 0.0
30 16:55 W 18 G 24 10.00 Fair CLR 75.9 50.2 41% 78 30.1 0.0
30 16:35 W 15 10.00 Fair CLR 76.3 49.5 39% 78 30.1 0.0
30 16:15 W 20 G 26 10.00 A Few Clouds FEW110 75 49.1 40% 77 30.1 0.0
30 15:55 W 17 10.00 Mostly Cloudy BKN110 76.6 47.7 36% 78 30.1 0.0
30 15:35 W 24 G 30 9.00 Overcast and Breezy OVC110 76.8 48.6 37% 78 30.11 0.0
30 15:15 W 18 10.00 Overcast OVC110 75.9 51.1 42% 78 30.11 0.0
30 14:55 W 18 7.00 Mostly Cloudy FEW055 BKN100 BKN120 72.9 51.3 47% 30.11 0.0
30 14:35 W 20 G 29 10.00 Mostly Cloudy BKN120 76.8 47.7 36% 78 30.11 0.0
30 14:15 W 23 10.00 Mostly Cloudy and Breezy BKN110 78.8 46.8 32% 79 30.09 0.0
30 13:55 W 28 G 35 10.00 Fair and Windy CLR 83.8 48.9 30% 82 30.07 0.0
30 13:35 W 30 G 37 10.00 Fair and Windy CLR 83.1 47.3 29% 81 30.07 0.0
30 13:15 W 17 G 24 10.00 Fair CLR 84.7 49.1 29% 83 30.06 0.0
30 12:55 W 17 10.00 Fair CLR 82.6 46.9 29% 81 30.06 0.0
30 12:35 W 18 10.00 Fair CLR 83.5 47.1 28% 81 30.06 0.0
30 12:15 SW 20 10.00 Fair CLR 81.7 48 31% 80 30.06 0.0
30 11:55 W 16 10.00 Fair CLR 79.5 48.6 79.5 62.1 34% 79 30.07 0.0
30 11:35 W 15 10.00 Fair CLR 77.4 48.7 37% 78 30.07 0.0
30 11:15 W 13 10.00 Fair CLR 75.6 49.1 39% 78 30.08 0.0
30 10:55 W 13 9.00 Fair CLR 74.7 48.7 40% 30.09 0.0
30 10:35 W 21 G 28 9.00 Fair and Breezy CLR 74.7 48 39% 30.09 0.0
30 10:15 W 21 10.00 Fair and Breezy CLR 75.6 48.7 39% 78 30.09 0.0
30 09:55 W 21 10.00 Fair and Breezy CLR 74.8 48 39% 30.1 0.0
30 09:35 W 18 G 24 10.00 Fair CLR 75.7 49.1 39% 78 30.09 0.0
30 09:15 W 12 10.00 Fair CLR 73.4 49.8 44% 30.09 0.0
30 08:55 W 15 10.00 Fair CLR 71.8 48.9 44% 30.08 0.0
30 08:35 SW 12 10.00 Fair CLR 69.1 49.6 50% 30.08 0.0
30 08:15 W 16 10.00 Fair CLR 69.4 48.9 48% 30.08 0.0
30 07:55 W 23 10.00 Fair and Breezy CLR 70 48.4 46% 30.07 0.0
30 07:35 W 23 G 30 9.00 Fair and Breezy CLR 68.9 48.6 48% 30.06 0.0
30 07:15 W 15 9.00 Fair CLR 66.6 48.9 53% 30.06 0.0
30 06:55 W 17 9.00 Fair CLR 67.1 48.7 52% 30.07 0.0
30 06:35 W 18 10.00 Fair CLR 66.7 48.9 53% 30.06 0.0
30 06:15 W 8 10.00 A Few Clouds FEW120 63.1 51.1 65% 30.06 0.0
30 05:55 S 8 10.00 Overcast OVC110 60.6 53.4 65.3 59.5 77% 30.06 0.0
30 05:35 S 7 9.00 Mostly Cloudy BKN110 60.4 53.4 78% 30.05 0.0
30 05:15 Calm 10.00 A Few Clouds FEW120 61.5 52.2 72% 30.05 0.0
30 04:55 SW 6 9.00 Light Rain SCT100 BKN120 62.2 52.2 70% 30.04 0.0
30 04:35 SW 9 10.00 Mostly Cloudy FEW090 BKN110 62.4 52 69% 30.05 0.0
30 04:15 SW 7 10.00 Mostly Cloudy BKN100 62.8 50.7 65% 30.06 0.0
30 03:55 SW 7 10.00 Overcast OVC100 60.1 52 75% 30.05 0.0
30 03:35 S 12 10.00 Overcast OVC110 60.4 51.3 72% 30.05 0.0
30 03:15 S 13 10.00 Mostly Cloudy BKN120 60.6 50.5 70% 30.04 0.0
30 02:55 SW 13 10.00 Fair CLR 63.1 48.7 60% 30.04 0.0
30 02:35 SW 8 10.00 Fair CLR 62.2 50 64% 30.05 0.0
30 02:15 W 6 10.00 Fair CLR 63.7 49.1 59% 30.05 0.0
30 01:55 W 9 10.00 Fair CLR 62.2 50 64% 30.05 0.0
30 01:35 SW 7 10.00 Fair CLR 61.9 50.4 66% 30.05 0.0
30 01:15 SW 8 10.00 Fair CLR 61.9 50.4 66% 30.05 0.0
30 00:55 SW 6 10.00 Fair CLR 61.9 51.3 68% 30.06 0.0
30 00:35 SW 8 10.00 A Few Clouds FEW120 61.9 51.6 69% 30.06 0.0
30 00:15 SW 5 10.00 A Few Clouds FEW120 60.3 52.3 75% 30.05 0.0
29 23:55 SW 7 10.00 Fair CLR 61.2 51.4 72.3 58.1 71% 30.05 0.0
29 23:35 S 5 10.00 Fair CLR 61.2 51.8 71% 30.06 0.0
29 23:15 S 3 10.00 Fair CLR 58.6 52 79% 30.07 0.0
29 22:55 S 7 10.00 Fair CLR 61.7 51.6 70% 30.09 0.0
29 22:35 Calm 10.00 Fair CLR 59.5 51.8 76% 30.1 0.0
29 22:15 W 6 10.00 Fair CLR 61.2 51.6 71% 30.1 0.0
29 21:55 Calm 10.00 Fair CLR 60.3 52.3 75% 30.11 0.0
29 21:35 W 6 10.00 Fair CLR 60.6 52.7 75% 30.11 0.0
29 21:15 W 8 10.00 Fair CLR 62.2 52.3 70% 30.12 0.0
29 20:55 W 13 10.00 Fair CLR 63.5 52.3 67% 30.12 0.0
29 20:35 NW 16 10.00 Fair CLR 64.2 52.2 65% 30.12 0.0
29 20:15 W 21 G 28 10.00 Partly Cloudy and Breezy SCT110 64.6 51.8 63% 30.12 0.0
29 19:55 W 23 G 30 10.00 Mostly Cloudy and Breezy BKN100 64.4 52 64% 30.12 0.0
29 19:35 NW 28 G 37 8.00 Mostly Cloudy and Windy BKN100 64 52.2 65% 30.12 0.0
29 19:15 NW 25 G 44 6.00 Mostly Cloudy with Haze and Breezy BKN100 64.9 54.3 69% 30.14 0.0
29 18:55 NW 22 G 26 8.00 Light Rain and Breezy BKN120 71.6 57.4 61% 30.13 0.0
29 18:35 W 9 9.00 Mostly Cloudy BKN110 70.5 59.9 69% 30.1 0.0
29 18:15 Calm 9.00 Overcast OVC100 70.9 58.5 65% 30.09 0.0
29 17:55 NW 14 9.00 Overcast OVC100 73 56.5 88.9 73 56% 30.08 0.0
29 17:35 N 10 9.00 Mostly Cloudy BKN110 73.2 56.3 56% 30.06 0.0
29 17:15 N 17 9.00 Fair CLR 75 55.2 50% 78 30.06 0.0
29 16:55 N 15 10.00 A Few Clouds FEW110 75.6 55.2 49% 78 30.05 0.0
29 16:35 NW 20 8.00 Partly Cloudy SCT100 75.4 54.9 49% 78 30.06 0.0
29 16:15 NW 22 G 32 10.00 Partly Cloudy and Breezy SCT100 85.1 52.3 32% 83 30.06 0.0
29 15:55 SW 8 10.00 A Few Clouds FEW110 86.2 50.7 29% 84 30.03 0.0
Date Time (mdt) Wind (mph) Vis. (mi.) Weather Sky Cond. Air Dwpt Max. Min. Relative Humidity Wind Chill (°F) Heat Index (°F) altimeter (in) sea level (mb) 1 hr 3 hr 6 hr
6 hour
Temperature (ºF) Pressure Precipitation (in)